Thomson Spirit — 9HA2336 — position and weather

sailwx.info

Track history (hours):
 
Tides and Currents Weather Stations Pressure Air Temp Water Temp Dewpoint Dewpoint Depression Visibility Wind Speed Wind Dir Waves Ship Positions

Thomson Spirit

Last reported at 2015-Sep-04 03:22 UTC. Time now 2015-Sep-04 14:35 UTC.
Position N 37°54' E 027°05'.

Length 214 m; draft 7.8 m.

Type: Passenger vessel. MMSI: 248368000.

Date/timePositionNaut miles runAvg speedWind from/ knotsBaromVisibWave heightAir tempDewpointWater temp
2015-Sep-04 03:22N 37°54' E 027°05'5012.7
2015-Sep-03 23:25N 38°05' E 026°02'1012.1
2015-Sep-03 22:33N 38°12' E 025°52'223 5.5
2015-Sep-02 06:04N 41°02' E 028°59'24510.7
2015-Sep-01 07:15N 37°42' E 025°55'4215.2
2015-Sep-01 04:28N 37°07' E 026°25'1415.9
2015-Sep-01 03:33N 36°57' E 026°37'1615.5
2015-Sep-01 02:33N 36°45' E 026°50'1615.5
2015-Sep-01 01:29N 36°33' E 027°04'1515.9
2015-Sep-01 00:33N 36°31' E 027°22'2216.2
2015-Aug-31 23:10N 36°29' E 027°50'  
2015-Aug-28 20:33N 34°37' E 032°29'1414.3
2015-Aug-28 19:34N 34°32' E 032°44'1413.6
2015-Aug-28 18:34N 34°31' E 033°01'1414.1
2015-Aug-28 17:33N 34°37' E 033°16'1413.7
2015-Aug-28 16:30N 34°44' E 033°32'11 1.1
2015-Aug-28 06:05N 34°50' E 033°43'611.7
2015-Aug-28 05:32N 34°44' E 033°45'2116.4
2015-Aug-28 04:16N 34°23' E 033°49'1010.7
2015-Aug-28 03:22N 34°14' E 033°52'2514.0
2015-Aug-28 01:34N 33°49' E 033°59'1413.7
2015-Aug-28 00:34N 33°36' E 034°01'1414.1
2015-Aug-27 23:33N 33°22' E 034°05'1414.2
2015-Aug-27 22:33N 33°08' E 034°09'  
Track history (hours):
 
Tides and Currents Weather Stations Pressure Air Temp Water Temp Dewpoint Dewpoint Depression Visibility Wind Speed Wind Dir Waves Ship Positions

Thomson Spirit

Last reported at 2015-Sep-04 03:22 UTC. Time now 2015-Sep-04 14:35 UTC.
Position N 37°54' E 027°05'.

Length 214 m; draft 7.8 m.

Type: Passenger vessel. MMSI: 248368000.

Date/timePositionNaut miles runAvg speedWind from/ knotsBaromVisibWave heightAir tempDewpointWater temp
2015-Sep-04 03:22N 37°54' E 027°05'5012.7
2015-Sep-03 23:25N 38°05' E 026°02'1012.1
2015-Sep-03 22:33N 38°12' E 025°52'223 5.5
2015-Sep-02 06:04N 41°02' E 028°59'24510.7
2015-Sep-01 07:15N 37°42' E 025°55'4215.2
2015-Sep-01 04:28N 37°07' E 026°25'1415.9
2015-Sep-01 03:33N 36°57' E 026°37'1615.5
2015-Sep-01 02:33N 36°45' E 026°50'1615.5
2015-Sep-01 01:29N 36°33' E 027°04'1515.9
2015-Sep-01 00:33N 36°31' E 027°22'2216.2
2015-Aug-31 23:10N 36°29' E 027°50'  
2015-Aug-28 20:33N 34°37' E 032°29'1414.3
2015-Aug-28 19:34N 34°32' E 032°44'1413.6
2015-Aug-28 18:34N 34°31' E 033°01'1414.1
2015-Aug-28 17:33N 34°37' E 033°16'1413.7
2015-Aug-28 16:30N 34°44' E 033°32'11 1.1
2015-Aug-28 06:05N 34°50' E 033°43'611.7
2015-Aug-28 05:32N 34°44' E 033°45'2116.4
2015-Aug-28 04:16N 34°23' E 033°49'1010.7
2015-Aug-28 03:22N 34°14' E 033°52'2514.0
2015-Aug-28 01:34N 33°49' E 033°59'1413.7
2015-Aug-28 00:34N 33°36' E 034°01'1414.1
2015-Aug-27 23:33N 33°22' E 034°05'1414.2
2015-Aug-27 22:33N 33°08' E 034°09'  

Dump ship's entire track history